createdAt,value
2018-09-13T00:02:16.768Z,2.13
2018-09-13T00:04:45.368Z,2.30
2018-09-13T00:07:14.307Z,2.33
2018-09-13T00:09:43.149Z,2.83
2018-09-13T00:12:12.062Z,2.53
2018-09-13T00:14:40.051Z,2.20
2018-09-13T00:17:08.554Z,1.97
2018-09-13T00:19:36.920Z,3.40
2018-09-13T00:22:05.506Z,2.07
2018-09-13T00:24:33.257Z,2.60
2018-09-13T00:27:01.194Z,2.47
2018-09-13T00:29:29.165Z,1.60
2018-09-13T00:31:58.521Z,2.40
2018-09-13T00:34:26.334Z,3.60
2018-09-13T00:36:54.193Z,2.10
2018-09-13T00:39:21.898Z,2.40
2018-09-13T00:41:49.831Z,2.47
2018-09-13T00:44:18.795Z,2.43
2018-09-13T00:46:48.022Z,2.63
2018-09-13T00:49:15.961Z,3.23
2018-09-13T00:51:44.548Z,2.43
2018-09-13T00:54:12.134Z,1.90
2018-09-13T00:56:39.899Z,2.30
2018-09-13T00:59:07.801Z,2.00
2018-09-13T01:01:37.011Z,2.77
2018-09-13T01:04:05.071Z,3.03
2018-09-13T01:06:33.961Z,2.80
2018-09-13T01:09:02.931Z,2.30
2018-09-13T01:11:31.396Z,1.80
2018-09-13T01:13:59.091Z,2.50
2018-09-13T01:16:27.387Z,2.30
2018-09-13T01:18:55.766Z,2.73
2018-09-13T01:21:23.764Z,2.00
2018-09-13T01:23:53.642Z,2.13
2018-09-13T01:26:22.306Z,2.23
2018-09-13T01:28:50.705Z,2.33
2018-09-13T01:31:18.529Z,1.93
2018-09-13T01:33:47.155Z,2.53
2018-09-13T01:36:14.887Z,1.90
2018-09-13T01:38:43.606Z,2.03
2018-09-13T01:41:11.465Z,2.40
2018-09-13T01:43:40.031Z,2.17
2018-09-13T01:46:09.232Z,2.50
2018-09-13T01:48:38.212Z,2.00
2018-09-13T01:51:06.519Z,2.50
2018-09-13T01:53:35.514Z,3.07
2018-09-13T01:56:03.496Z,2.37
2018-09-13T01:58:32.166Z,2.30
2018-09-13T02:01:00.140Z,1.93
2018-09-13T02:03:29.950Z,2.50
2018-09-13T02:05:57.819Z,2.33
2018-09-13T02:08:25.451Z,3.27
2018-09-13T02:10:53.174Z,2.80
2018-09-13T02:13:21.716Z,2.43
2018-09-13T02:15:49.386Z,2.83
2018-09-13T02:18:18.537Z,2.50
2018-09-13T02:20:47.030Z,2.50
2018-09-13T02:23:15.551Z,2.87
2018-09-13T02:25:43.602Z,2.37
2018-09-13T02:28:11.425Z,2.30
2018-09-13T02:30:39.383Z,2.40
2018-09-13T02:33:07.095Z,2.33
2018-09-13T02:35:35.063Z,2.87
2018-09-13T02:38:02.751Z,2.10
2018-09-13T02:40:31.684Z,2.27
2018-09-13T02:42:59.605Z,3.00
2018-09-13T02:45:27.351Z,2.50
2018-09-13T02:47:55.973Z,3.10
2018-09-13T02:50:24.203Z,2.23
2018-09-13T02:52:53.558Z,2.97
2018-09-13T02:55:22.193Z,2.57
2018-09-13T02:57:51.221Z,2.27
2018-09-13T03:00:20.080Z,2.00
2018-09-13T03:02:49.407Z,1.67
2018-09-13T03:05:17.285Z,2.37
2018-09-13T03:07:45.178Z,1.87
2018-09-13T03:10:13.823Z,1.83
2018-09-13T03:12:41.850Z,2.20
2018-09-13T03:15:10.478Z,2.60
2018-09-13T03:17:38.323Z,2.53
2018-09-13T03:20:06.371Z,3.40
2018-09-13T03:22:34.796Z,2.10
2018-09-13T03:25:03.874Z,3.43
2018-09-13T03:27:31.799Z,2.90
2018-09-13T03:29:59.904Z,2.33
2018-09-13T03:32:27.757Z,2.90
2018-09-13T03:34:55.844Z,2.67
2018-09-13T03:37:23.721Z,2.63
2018-09-13T03:39:52.021Z,2.20
2018-09-13T03:42:20.001Z,2.87
2018-09-13T03:44:48.255Z,3.20
2018-09-13T03:47:15.938Z,3.17
2018-09-13T03:49:44.220Z,2.73
2018-09-13T03:52:12.758Z,2.63
2018-09-13T03:54:40.795Z,3.30
2018-09-13T03:57:09.349Z,2.60
2018-09-13T03:59:37.373Z,3.57
2018-09-13T04:02:05.214Z,3.17
2018-09-13T04:04:33.926Z,2.90
2018-09-13T04:07:01.723Z,3.30
2018-09-13T04:09:30.413Z,3.20
2018-09-13T04:11:59.211Z,3.77
2018-09-13T04:14:26.950Z,3.30
2018-09-13T04:16:54.885Z,3.23
2018-09-13T04:19:22.938Z,3.57
2018-09-13T04:21:51.112Z,3.23
2018-09-13T04:24:18.795Z,2.77
2018-09-13T04:26:46.587Z,5.17
2018-09-13T04:29:15.374Z,4.00
2018-09-13T04:31:43.687Z,3.93
2018-09-13T04:34:11.608Z,4.10
2018-09-13T04:36:39.399Z,3.90
2018-09-13T04:39:07.852Z,4.07
2018-09-13T04:41:36.053Z,4.40
2018-09-13T04:44:04.549Z,3.73
2018-09-13T04:46:32.801Z,4.00
2018-09-13T04:49:00.346Z,3.67
2018-09-13T04:51:28.019Z,4.43
2018-09-13T04:53:55.821Z,4.00
2018-09-13T04:56:24.086Z,2.83
2018-09-13T04:58:53.211Z,4.23
2018-09-13T05:01:21.049Z,3.63
2018-09-13T05:03:48.830Z,5.17
2018-09-13T05:06:16.658Z,4.70
2018-09-13T05:08:45.552Z,3.27
2018-09-13T05:11:14.695Z,3.10
2018-09-13T05:13:43.332Z,3.50
2018-09-13T05:16:11.239Z,3.60
2018-09-13T05:18:39.270Z,3.97
2018-09-13T05:21:07.454Z,3.90
2018-09-13T05:23:35.267Z,4.17
2018-09-13T05:26:03.161Z,3.97
2018-09-13T05:28:31.486Z,4.20
2018-09-13T05:30:59.361Z,4.20
2018-09-13T05:33:27.212Z,3.70
2018-09-13T05:35:55.068Z,3.97
2018-09-13T05:38:23.381Z,3.60
2018-09-13T05:40:51.929Z,3.63
2018-09-13T05:43:20.027Z,3.70
2018-09-13T05:45:47.994Z,4.30
2018-09-13T05:48:16.041Z,3.80
2018-09-13T05:50:43.846Z,3.60
2018-09-13T05:53:11.972Z,3.80
2018-09-13T05:55:39.816Z,3.73
2018-09-13T05:58:09.974Z,3.40
2018-09-13T06:00:37.924Z,3.43
2018-09-13T06:03:06.479Z,3.97
2018-09-13T06:05:34.280Z,3.53
2018-09-13T06:08:02.144Z,3.70
2018-09-13T06:10:30.847Z,4.20
2018-09-13T06:12:58.409Z,4.57
2018-09-13T06:15:25.964Z,3.37
2018-09-13T06:17:53.741Z,3.53
2018-09-13T06:20:21.388Z,3.00
2018-09-13T06:22:48.938Z,2.80
2018-09-13T06:25:25.335Z,3.03
2018-09-13T06:27:54.325Z,3.17
2018-09-13T06:30:22.245Z,2.40
2018-09-13T06:32:50.151Z,2.90
2018-09-13T06:35:18.639Z,3.00
2018-09-13T06:37:46.854Z,2.70
2018-09-13T06:40:14.945Z,2.87
2018-09-13T06:42:42.517Z,3.03
2018-09-13T06:45:10.511Z,2.87
2018-09-13T06:47:39.587Z,4.30
2018-09-13T06:50:08.759Z,2.50
2018-09-13T06:52:36.835Z,6.37
2018-09-13T06:55:04.416Z,2.77
2018-09-13T06:57:32.085Z,2.47
2018-09-13T06:59:59.850Z,2.87
2018-09-13T07:02:27.778Z,3.60
2018-09-13T07:04:55.591Z,3.93
2018-09-13T07:07:23.391Z,2.40
2018-09-13T07:09:51.386Z,3.03
2018-09-13T07:12:19.288Z,2.10
2018-09-13T07:14:47.338Z,2.60
2018-09-13T07:17:15.322Z,1.40
2018-09-13T07:19:43.914Z,2.30
2018-09-13T07:22:11.620Z,2.00
2018-09-13T07:24:40.163Z,1.50
2018-09-13T07:27:08.776Z,2.83
2018-09-13T07:29:38.022Z,2.67
2018-09-13T07:32:05.846Z,2.40
2018-09-13T07:34:34.467Z,3.07
2018-09-13T07:37:02.841Z,2.30
2018-09-13T07:39:32.073Z,2.00
2018-09-13T07:42:00.038Z,1.93
2018-09-13T07:44:28.017Z,2.23
2018-09-13T07:46:55.768Z,2.03
2018-09-13T07:49:23.532Z,1.37
2018-09-13T07:51:52.678Z,1.83
2018-09-13T07:54:20.497Z,1.40
2018-09-13T07:56:48.756Z,1.60
2018-09-13T07:59:17.261Z,2.03
2018-09-13T08:01:45.228Z,2.30
2018-09-13T08:04:13.296Z,1.50
2018-09-13T08:06:41.273Z,1.73
2018-09-13T08:09:10.506Z,1.53
2018-09-13T08:11:38.472Z,1.77
2018-09-13T08:14:06.336Z,2.03
2018-09-13T08:16:34.351Z,1.50
2018-09-13T08:19:02.978Z,1.30
2018-09-13T08:21:31.848Z,1.30
2018-09-13T08:24:00.510Z,1.37
2018-09-13T08:26:28.363Z,1.90
2018-09-13T08:28:56.436Z,1.63
2018-09-13T08:31:24.684Z,1.63
2018-09-13T08:33:52.627Z,2.37
2018-09-13T08:36:20.632Z,1.27
2018-09-13T08:38:49.587Z,2.00
2018-09-13T08:41:17.817Z,1.70
2018-09-13T08:43:47.172Z,1.23
2018-09-13T08:46:19.413Z,1.50
2018-09-13T08:48:51.270Z,1.90
2018-09-13T08:51:19.230Z,2.20
2018-09-13T08:53:47.509Z,1.50
2018-09-13T08:56:16.079Z,1.43
2018-09-13T08:58:44.061Z,1.23
2018-09-13T09:01:11.851Z,1.33
2018-09-13T09:03:39.593Z,1.63
2018-09-13T09:06:07.695Z,0.93
2018-09-13T09:08:35.463Z,1.10
2018-09-13T09:11:03.832Z,1.17
2018-09-13T09:13:31.717Z,2.00
2018-09-13T09:15:59.596Z,1.53
2018-09-13T09:18:27.589Z,1.50
2018-09-13T09:20:55.553Z,1.77
2018-09-13T09:23:23.821Z,1.23
2018-09-13T09:25:51.687Z,2.90
2018-09-13T09:30:47.175Z,1.57
2018-09-13T09:33:14.717Z,1.27
2018-09-13T09:35:42.289Z,1.23
2018-09-13T09:38:09.855Z,0.90
2018-09-13T09:40:37.478Z,1.60
2018-09-13T09:43:05.036Z,1.67
2018-09-13T09:45:32.748Z,1.53
2018-09-13T09:48:00.460Z,0.80
2018-09-13T09:50:28.011Z,1.33
2018-09-13T09:52:55.559Z,1.10
2018-09-13T09:55:23.931Z,3.27
2018-09-13T09:57:52.165Z,1.20
2018-09-13T10:00:25.683Z,1.60
2018-09-13T10:02:53.466Z,1.37
2018-09-13T10:05:21.042Z,1.23
2018-09-13T10:07:48.913Z,1.50
2018-09-13T10:10:16.511Z,1.13
2018-09-13T10:12:44.050Z,1.37
2018-09-13T10:15:16.915Z,1.03
2018-09-13T10:17:49.927Z,2.03
2018-09-13T10:20:23.160Z,1.40
2018-09-13T10:22:56.447Z,1.67
2018-09-13T10:25:29.290Z,1.50
2018-09-13T10:28:02.119Z,1.77
2018-09-13T10:30:35.068Z,1.57
2018-09-13T10:33:07.918Z,1.17
2018-09-13T10:35:40.714Z,1.40
2018-09-13T10:38:13.588Z,1.60
2018-09-13T10:40:46.555Z,1.50
2018-09-13T10:43:19.702Z,2.00
2018-09-13T10:45:52.824Z,1.70
2018-09-13T10:48:26.691Z,1.70
2018-09-13T10:51:01.259Z,1.77
2018-09-13T10:53:34.239Z,1.00
2018-09-13T10:56:02.089Z,1.57
2018-09-13T10:58:30.080Z,1.23
2018-09-13T11:00:58.052Z,1.50
2018-09-13T11:03:27.632Z,1.33
2018-09-13T11:05:55.570Z,1.20
2018-09-13T11:08:24.293Z,1.23
2018-09-13T11:10:53.366Z,2.10
2018-09-13T11:13:31.426Z,1.40
2018-09-13T11:15:59.274Z,2.30
2018-09-13T11:18:26.915Z,1.93
2018-09-13T11:20:54.600Z,1.50
2018-09-13T11:23:22.734Z,1.97
2018-09-13T11:25:51.288Z,1.40
2018-09-13T11:28:19.124Z,2.20
2018-09-13T11:30:52.165Z,2.03
2018-09-13T11:33:19.789Z,2.20
2018-09-13T11:35:47.801Z,2.00
2018-09-13T11:38:15.765Z,1.77
2018-09-13T11:40:44.164Z,1.30
2018-09-13T11:43:12.009Z,1.80
2018-09-13T11:45:39.877Z,1.87
2018-09-13T11:48:07.641Z,1.90
2018-09-13T11:50:36.237Z,2.80
2018-09-13T11:53:04.377Z,2.50
2018-09-13T11:55:32.190Z,2.00
2018-09-13T11:58:00.783Z,2.10
2018-09-13T12:00:29.432Z,1.83
2018-09-13T12:02:57.976Z,1.67
2018-09-13T12:05:26.541Z,1.60
2018-09-13T12:07:54.528Z,1.70
2018-09-13T12:10:23.090Z,1.80
2018-09-13T12:12:51.096Z,1.70
2018-09-13T12:15:19.978Z,1.93
2018-09-13T12:17:48.857Z,1.97
2018-09-13T12:20:17.491Z,1.80
2018-09-13T12:22:45.263Z,1.60
2018-09-13T12:25:12.843Z,1.30
2018-09-13T12:27:40.396Z,2.07
2018-09-13T12:30:08.122Z,2.40
2018-09-13T12:32:35.725Z,1.90
2018-09-13T12:35:03.345Z,2.00
2018-09-13T12:37:30.905Z,1.60
2018-09-13T12:39:58.460Z,1.70
2018-09-13T12:42:25.998Z,1.37
2018-09-13T12:44:53.555Z,1.57
2018-09-13T12:47:21.079Z,1.83
2018-09-13T12:49:48.814Z,1.53
2018-09-13T12:52:16.439Z,1.73
2018-09-13T12:54:44.006Z,1.67
2018-09-13T12:57:11.744Z,2.00
2018-09-13T12:59:40.389Z,2.00
2018-09-13T13:02:08.084Z,1.70
2018-09-13T13:04:36.766Z,2.10
2018-09-13T13:07:05.507Z,1.47
2018-09-13T13:09:33.291Z,1.27
2018-09-13T13:12:00.854Z,2.00
2018-09-13T13:14:28.386Z,1.50
2018-09-13T13:16:56.057Z,1.10
2018-09-13T13:19:23.642Z,1.77
2018-09-13T13:21:51.170Z,1.10
2018-09-13T13:24:18.722Z,1.40
2018-09-13T13:26:46.293Z,1.67
2018-09-13T13:29:13.875Z,1.70
2018-09-13T13:31:41.431Z,1.63
2018-09-13T13:34:09.029Z,1.90
2018-09-13T13:36:36.619Z,1.60
2018-09-13T13:39:06.335Z,1.50
2018-09-13T13:41:33.919Z,0.90
2018-09-13T13:44:01.580Z,1.93
2018-09-13T13:46:29.103Z,2.00
2018-09-13T13:48:56.638Z,1.80
2018-09-13T13:51:24.269Z,1.50
2018-09-13T13:53:51.863Z,1.67
2018-09-13T13:56:19.430Z,2.33
2018-09-13T13:58:46.989Z,2.33
2018-09-13T14:01:14.545Z,1.27
2018-09-13T14:03:42.135Z,1.80
2018-09-13T14:06:09.659Z,1.90
2018-09-13T14:08:37.273Z,1.63
2018-09-13T14:11:04.819Z,1.70
2018-09-13T14:13:32.402Z,1.60
2018-09-13T14:15:59.939Z,2.43
2018-09-13T14:18:27.563Z,1.80
2018-09-13T14:20:55.127Z,1.10
2018-09-13T14:23:22.717Z,2.00
2018-09-13T14:25:50.279Z,1.73
2018-09-13T14:28:17.882Z,1.97
2018-09-13T14:30:45.492Z,1.50
2018-09-13T14:33:13.087Z,1.63
2018-09-13T14:35:40.745Z,1.73
2018-09-13T14:38:08.307Z,1.80
2018-09-13T14:40:35.885Z,1.83
2018-09-13T14:43:03.537Z,1.97
2018-09-13T14:45:31.140Z,2.00
2018-09-13T14:47:59.469Z,1.63
2018-09-13T14:50:27.055Z,1.83
2018-09-13T14:52:54.666Z,1.50
2018-09-13T14:55:22.260Z,1.10
2018-09-13T14:57:49.822Z,1.47
2018-09-13T15:00:17.377Z,1.60
2018-09-13T15:02:44.990Z,1.50
2018-09-13T15:05:12.924Z,1.40
2018-09-13T15:07:40.470Z,1.43
2018-09-13T15:10:08.093Z,1.63
2018-09-13T15:12:35.634Z,1.57
2018-09-13T15:15:03.362Z,1.87
2018-09-13T15:17:30.943Z,1.30
2018-09-13T15:19:58.537Z,1.30
2018-09-13T15:22:26.147Z,1.10
2018-09-13T15:24:53.790Z,1.43
2018-09-13T15:27:21.381Z,1.33
2018-09-13T15:29:48.942Z,1.37
2018-09-13T15:32:16.494Z,0.80
2018-09-13T15:34:44.093Z,1.80
2018-09-13T15:37:11.689Z,1.33
2018-09-13T15:39:39.275Z,0.87
2018-09-13T15:42:06.851Z,1.37
2018-09-13T15:44:34.451Z,0.97
2018-09-13T15:47:02.281Z,1.10
2018-09-13T15:49:29.834Z,1.10
2018-09-13T15:51:57.466Z,1.00
2018-09-13T15:54:25.366Z,1.00
2018-09-13T15:56:53.303Z,1.77
2018-09-13T15:59:21.442Z,1.60
2018-09-13T16:01:49.444Z,0.50
2018-09-13T16:04:17.377Z,1.00
2018-09-13T16:06:45.322Z,0.80
2018-09-13T16:09:13.287Z,2.10
2018-09-13T16:11:41.929Z,1.47
2018-09-13T16:14:10.446Z,0.97
2018-09-13T16:16:38.354Z,1.37
2018-09-13T16:19:06.401Z,1.33
2018-09-13T16:21:34.678Z,1.17
2018-09-13T16:24:02.543Z,1.40
2018-09-13T16:26:30.413Z,0.97
2018-09-13T16:28:58.355Z,1.00
2018-09-13T16:31:26.299Z,1.37
2018-09-13T16:33:53.873Z,1.00
2018-09-13T16:36:23.302Z,1.30
2018-09-13T16:38:56.176Z,1.33
2018-09-13T16:41:28.981Z,1.10
2018-09-13T16:44:02.982Z,1.27
2018-09-13T16:46:36.784Z,1.00
2018-09-13T16:49:04.833Z,1.00
2018-09-13T16:51:32.719Z,1.50
2018-09-13T16:54:00.772Z,1.20
2018-09-13T16:56:28.612Z,1.00
2018-09-13T16:58:56.509Z,0.70
2018-09-13T17:01:24.086Z,1.40
2018-09-13T17:03:51.708Z,1.27
2018-09-13T17:06:19.209Z,1.60
2018-09-13T17:08:47.009Z,1.40
2018-09-13T17:11:14.670Z,1.20
2018-09-13T17:13:42.559Z,1.50
2018-09-13T17:16:10.141Z,1.20
2018-09-13T17:18:37.677Z,1.40
2018-09-13T17:21:05.272Z,1.50
2018-09-13T17:23:33.001Z,1.43
2018-09-13T17:26:01.363Z,1.70
2018-09-13T17:28:29.830Z,1.00
2018-09-13T17:30:57.643Z,2.50
2018-09-13T17:33:26.149Z,1.23
2018-09-13T17:35:54.405Z,1.60
2018-09-13T17:38:23.491Z,1.27
2018-09-13T17:40:51.346Z,1.30
2018-09-13T17:43:19.864Z,1.30
2018-09-13T17:45:48.904Z,1.30
2018-09-13T17:48:17.418Z,1.27
2018-09-13T17:50:45.400Z,1.50
2018-09-13T17:53:13.275Z,2.00
2018-09-13T17:55:41.470Z,1.97
2018-09-13T17:58:09.620Z,1.60
2018-09-13T18:00:37.770Z,1.57
2018-09-13T18:03:05.635Z,1.30
2018-09-13T18:05:33.610Z,2.07
2018-09-13T18:08:02.126Z,1.40
2018-09-13T18:10:30.112Z,1.60
2018-09-13T18:12:58.686Z,2.33
2018-09-13T18:15:26.559Z,1.60
2018-09-13T18:17:54.185Z,1.63
2018-09-13T18:20:22.659Z,1.60
2018-09-13T18:22:50.624Z,1.90
2018-09-13T18:25:18.892Z,2.30
2018-09-13T18:27:46.920Z,2.17
2018-09-13T18:30:14.701Z,2.20
2018-09-13T18:32:43.036Z,2.33
2018-09-13T18:35:11.018Z,2.03
2018-09-13T18:37:39.441Z,1.80
2018-09-13T18:40:07.324Z,2.00
2018-09-13T18:42:35.342Z,2.33
2018-09-13T18:45:03.163Z,2.17
2018-09-13T18:47:31.212Z,1.93
2018-09-13T18:49:59.538Z,2.67
2018-09-13T18:52:27.630Z,1.87
2018-09-13T18:55:03.041Z,2.17
2018-09-13T18:57:30.865Z,2.40
2018-09-13T18:59:58.810Z,1.80
2018-09-13T19:02:27.428Z,2.20
2018-09-13T19:04:55.276Z,1.90
2018-09-13T19:07:23.347Z,2.00
2018-09-13T19:09:51.224Z,1.40
2018-09-13T19:12:19.635Z,2.20
2018-09-13T19:14:47.505Z,2.17
2018-09-13T19:17:15.917Z,1.80
2018-09-13T19:19:43.735Z,2.10
2018-09-13T19:22:12.016Z,2.40
2018-09-13T19:24:40.629Z,1.80
2018-09-13T19:27:08.510Z,2.10
2018-09-13T19:29:36.069Z,2.00
2018-09-13T19:32:03.654Z,2.43
2018-09-13T19:34:31.322Z,1.70
2018-09-13T19:36:58.927Z,2.03
2018-09-13T19:39:26.669Z,2.00
2018-09-13T19:41:54.290Z,2.47
2018-09-13T19:44:21.901Z,2.70
2018-09-13T19:46:49.456Z,2.57
2018-09-13T19:49:17.097Z,2.00
2018-09-13T19:51:44.703Z,1.80
2018-09-13T19:54:12.243Z,2.10
2018-09-13T19:56:39.818Z,2.63
2018-09-13T19:59:07.434Z,2.40
2018-09-13T20:01:35.039Z,2.70
2018-09-13T20:04:02.630Z,2.60
2018-09-13T20:06:30.220Z,2.70
2018-09-13T20:08:57.775Z,2.43
2018-09-13T20:11:25.348Z,2.90
2018-09-13T20:13:52.897Z,2.47
2018-09-13T20:16:20.453Z,3.13
2018-09-13T20:18:47.988Z,2.00
2018-09-13T20:21:15.907Z,2.57
2018-09-13T20:23:43.441Z,2.20
2018-09-13T20:26:11.567Z,2.60
2018-09-13T20:28:39.341Z,2.37
2018-09-13T20:31:07.323Z,2.73
2018-09-13T20:33:35.178Z,4.57
2018-09-13T20:36:02.983Z,2.53
2018-09-13T20:38:31.717Z,2.83
2018-09-13T20:40:59.504Z,2.97
2018-09-13T20:43:27.051Z,2.03
2018-09-13T20:45:54.573Z,3.20
2018-09-13T20:48:22.180Z,2.70
2018-09-13T20:50:50.170Z,2.37
2018-09-13T20:53:18.087Z,2.43
2018-09-13T20:55:45.634Z,2.60
2018-09-13T20:58:13.201Z,3.20
2018-09-13T21:00:40.732Z,3.20
2018-09-13T21:03:08.429Z,2.43
2018-09-13T21:05:36.388Z,3.43
2018-09-13T21:08:03.954Z,2.87
2018-09-13T21:10:31.470Z,3.33
2018-09-13T21:12:59.010Z,2.80
2018-09-13T21:15:26.565Z,2.57
2018-09-13T21:17:54.194Z,2.60
2018-09-13T21:20:21.726Z,3.10
2018-09-13T21:22:49.332Z,2.70
2018-09-13T21:25:16.888Z,2.97
2018-09-13T21:27:44.507Z,2.77
2018-09-13T21:30:12.113Z,2.70
2018-09-13T21:32:39.715Z,2.47
2018-09-13T21:35:07.349Z,2.47
2018-09-13T21:37:34.901Z,3.47
2018-09-13T21:40:02.583Z,2.43
2018-09-13T21:42:30.190Z,2.63
2018-09-13T21:44:57.837Z,2.63
2018-09-13T21:47:25.400Z,2.90
2018-09-13T21:49:53.200Z,2.40
2018-09-13T21:52:21.093Z,2.33
2018-09-13T21:54:48.960Z,2.30
2018-09-13T21:57:16.751Z,3.50
2018-09-13T21:59:44.578Z,3.50
2018-09-13T22:02:13.185Z,2.80
2018-09-13T22:04:40.999Z,3.20
2018-09-13T22:07:08.551Z,2.60
2018-09-13T22:09:36.116Z,2.50
2018-09-13T22:12:04.210Z,2.37
2018-09-13T22:14:31.729Z,1.93
2018-09-13T22:16:59.312Z,2.70
2018-09-13T22:19:26.910Z,3.23
2018-09-13T22:21:54.539Z,2.50
2018-09-13T22:24:22.110Z,2.30
2018-09-13T22:26:49.683Z,2.47
2018-09-13T22:29:17.358Z,2.43
2018-09-13T22:31:45.014Z,2.30
2018-09-13T22:34:12.573Z,2.67
2018-09-13T22:36:40.197Z,2.77
2018-09-13T22:39:08.866Z,2.60
2018-09-13T22:41:36.962Z,3.50
2018-09-13T22:44:04.524Z,2.60
2018-09-13T22:46:32.086Z,3.07
2018-09-13T22:48:59.773Z,3.03
2018-09-13T22:51:27.364Z,3.27
2018-09-13T22:53:54.930Z,2.60
2018-09-13T22:56:22.685Z,2.47
2018-09-13T22:58:50.289Z,4.23
2018-09-13T23:01:17.815Z,2.97
2018-09-13T23:03:45.409Z,5.03
2018-09-13T23:06:12.941Z,3.37
2018-09-13T23:08:40.721Z,3.80
2018-09-13T23:11:08.394Z,3.07
2018-09-13T23:13:35.977Z,3.30
2018-09-13T23:16:03.646Z,4.23
2018-09-13T23:18:31.205Z,3.87
2018-09-13T23:20:58.778Z,3.93
2018-09-13T23:23:26.338Z,3.90
2018-09-13T23:25:53.859Z,3.20
2018-09-13T23:28:21.422Z,4.27
2018-09-13T23:30:48.972Z,4.70
2018-09-13T23:33:16.470Z,4.37
2018-09-13T23:35:44.013Z,4.60
2018-09-13T23:38:11.598Z,4.00
2018-09-13T23:40:39.193Z,4.30
2018-09-13T23:43:06.695Z,4.80
2018-09-13T23:45:34.263Z,4.20
2018-09-13T23:48:01.863Z,4.90
2018-09-13T23:50:29.422Z,4.00
2018-09-13T23:52:57.114Z,5.00
2018-09-13T23:55:24.693Z,4.87
2018-09-13T23:57:53.258Z,4.70
